createdAt,value
2024-01-30T00:00:55.122Z,23.02
2024-01-30T00:01:55.185Z,23.04
2024-01-30T00:02:55.096Z,23.01
2024-01-30T00:03:55.129Z,23.04
2024-01-30T00:04:55.144Z,23.02
2024-01-30T00:05:58.513Z,23.05
2024-01-30T00:06:55.228Z,23.06
2024-01-30T00:07:55.214Z,23.01
2024-01-30T00:08:55.189Z,23.02
2024-01-30T00:09:55.201Z,22.99
2024-01-30T00:10:55.153Z,22.98
2024-01-30T00:11:55.156Z,22.98
2024-01-30T00:12:55.216Z,22.96
2024-01-30T00:13:55.173Z,23.02
2024-01-30T00:14:55.534Z,22.95
2024-01-30T00:15:55.214Z,22.99
2024-01-30T00:16:55.203Z,22.99
2024-01-30T00:17:55.230Z,22.91
2024-01-30T00:18:55.311Z,22.98
2024-01-30T00:19:55.286Z,22.90
2024-01-30T00:20:55.193Z,22.98
2024-01-30T00:21:55.200Z,22.94
2024-01-30T00:22:55.182Z,22.93
2024-01-30T00:23:55.159Z,22.88
2024-01-30T00:24:55.230Z,22.92
2024-01-30T00:25:55.191Z,22.90
2024-01-30T00:26:55.168Z,22.89
2024-01-30T00:27:55.298Z,22.92
2024-01-30T00:28:55.172Z,22.92
2024-01-30T00:29:55.192Z,22.88
2024-01-30T00:30:55.234Z,22.89
2024-01-30T00:31:55.205Z,22.88
2024-01-30T00:32:55.269Z,22.88
2024-01-30T00:33:55.243Z,22.89
2024-01-30T00:34:55.604Z,22.89
2024-01-30T00:35:55.190Z,22.84
2024-01-30T00:36:55.267Z,22.83
2024-01-30T00:37:55.201Z,22.86
2024-01-30T00:38:55.208Z,22.84
2024-01-30T00:39:55.208Z,22.87
2024-01-30T00:40:55.191Z,22.84
2024-01-30T00:41:55.186Z,22.82
2024-01-30T00:42:55.258Z,22.86
2024-01-30T00:43:55.203Z,22.83
2024-01-30T00:44:55.185Z,22.78
2024-01-30T00:45:55.216Z,22.81
2024-01-30T00:46:55.205Z,22.84
2024-01-30T00:47:55.257Z,22.87
2024-01-30T00:48:55.238Z,22.86
2024-01-30T00:49:55.261Z,22.81
2024-01-30T00:50:55.248Z,22.77
2024-01-30T00:51:55.328Z,22.78
2024-01-30T00:52:55.314Z,22.81
2024-01-30T00:53:55.313Z,22.77
2024-01-30T00:54:55.329Z,22.85
2024-01-30T00:55:55.389Z,22.77
2024-01-30T00:56:55.384Z,22.78
2024-01-30T00:57:55.411Z,22.80
2024-01-30T00:58:55.415Z,22.76
2024-01-30T00:59:55.474Z,22.77
2024-01-30T01:00:55.589Z,22.77
2024-01-30T01:01:55.688Z,22.81
2024-01-30T01:02:55.532Z,22.71
2024-01-30T01:03:55.677Z,22.76
2024-01-30T01:04:55.601Z,22.73
2024-01-30T01:05:55.621Z,22.76
2024-01-30T01:06:55.741Z,22.76
2024-01-30T01:07:55.663Z,22.70
2024-01-30T01:08:55.682Z,22.76
2024-01-30T01:09:55.837Z,22.77
2024-01-30T01:10:55.747Z,22.71
2024-01-30T01:11:55.806Z,22.70
2024-01-30T01:12:55.886Z,22.68
2024-01-30T01:13:55.802Z,22.73
2024-01-30T01:14:55.905Z,22.71
2024-01-30T01:15:55.922Z,22.70
2024-01-30T01:16:55.887Z,22.67
2024-01-30T01:17:55.974Z,22.65
2024-01-30T01:18:56.013Z,22.68
2024-01-30T01:19:55.984Z,22.70
2024-01-30T01:20:56.043Z,22.71
2024-01-30T01:21:56.066Z,22.68
2024-01-30T01:22:56.030Z,22.64
2024-01-30T01:23:56.041Z,22.65
2024-01-30T01:24:56.128Z,22.67
2024-01-30T01:25:58.952Z,22.64
2024-01-30T01:26:56.117Z,22.67
2024-01-30T01:27:56.231Z,22.65
2024-01-30T01:28:56.131Z,22.65
2024-01-30T01:29:56.125Z,22.64
2024-01-30T01:30:56.205Z,22.62
2024-01-30T01:31:56.114Z,22.62
2024-01-30T01:32:56.407Z,22.65
2024-01-30T01:33:56.177Z,22.61
2024-01-30T01:34:56.192Z,22.64
2024-01-30T01:35:56.124Z,22.62
2024-01-30T01:36:56.143Z,22.56
2024-01-30T01:37:56.545Z,22.60
2024-01-30T01:38:56.142Z,22.63
2024-01-30T01:39:56.236Z,22.56
2024-01-30T01:40:56.162Z,22.62
2024-01-30T01:41:56.128Z,22.64
2024-01-30T01:42:56.394Z,22.60
2024-01-30T01:43:56.125Z,22.60
2024-01-30T01:44:56.108Z,22.56
2024-01-30T01:45:56.152Z,22.65
2024-01-30T01:46:56.089Z,22.55
2024-01-30T01:47:56.250Z,22.58
2024-01-30T01:48:56.474Z,22.60
2024-01-30T01:49:56.238Z,22.58
2024-01-30T01:50:56.261Z,22.62
2024-01-30T01:51:56.386Z,22.58
2024-01-30T01:52:56.152Z,22.56
2024-01-30T01:53:56.140Z,22.60
2024-01-30T01:54:56.163Z,22.49
2024-01-30T01:55:56.147Z,22.55
2024-01-30T01:56:56.789Z,22.58
2024-01-30T01:57:56.162Z,22.53
2024-01-30T01:58:56.180Z,22.55
2024-01-30T01:59:56.115Z,22.61
2024-01-30T02:00:56.206Z,22.55
2024-01-30T02:01:56.396Z,22.55
2024-01-30T02:02:56.230Z,22.54
2024-01-30T02:03:56.242Z,22.52
2024-01-30T02:04:56.262Z,22.52
2024-01-30T02:05:56.176Z,22.53
2024-01-30T02:06:56.285Z,22.52
2024-01-30T02:07:56.416Z,22.51
2024-01-30T02:08:56.253Z,22.52
2024-01-30T02:09:56.284Z,22.54
2024-01-30T02:10:56.757Z,22.50
2024-01-30T02:11:56.314Z,22.49
2024-01-30T02:12:56.372Z,22.54
2024-01-30T02:13:56.396Z,22.49
2024-01-30T02:14:56.400Z,22.49
2024-01-30T02:15:56.434Z,22.48
2024-01-30T02:16:56.451Z,22.48
2024-01-30T02:17:56.516Z,22.43
2024-01-30T02:18:56.524Z,22.49
2024-01-30T02:19:56.678Z,22.49
2024-01-30T02:20:56.545Z,22.43
2024-01-30T02:21:56.600Z,22.48
2024-01-30T02:22:56.608Z,22.42
2024-01-30T02:23:56.599Z,22.46
2024-01-30T02:24:56.675Z,22.43
2024-01-30T02:25:56.684Z,22.43
2024-01-30T02:26:56.703Z,22.46
2024-01-30T02:27:56.740Z,22.45
2024-01-30T02:28:56.734Z,22.48
2024-01-30T02:29:56.787Z,22.48
2024-01-30T02:30:56.864Z,22.45
2024-01-30T02:31:56.853Z,22.45
2024-01-30T02:32:56.889Z,22.39
2024-01-30T02:33:56.943Z,22.45
2024-01-30T02:34:56.982Z,22.46
2024-01-30T02:35:56.957Z,22.45
2024-01-30T02:36:56.986Z,22.40
2024-01-30T02:37:56.977Z,22.40
2024-01-30T02:38:57.029Z,22.39
2024-01-30T02:39:57.063Z,22.42
2024-01-30T02:40:57.041Z,22.39
2024-01-30T02:41:57.098Z,22.38
2024-01-30T02:42:57.125Z,22.38
2024-01-30T02:43:57.149Z,22.39
2024-01-30T02:44:57.178Z,22.36
2024-01-30T02:45:57.244Z,22.34
2024-01-30T02:46:57.229Z,22.36
2024-01-30T02:47:57.262Z,22.30
2024-01-30T02:48:57.351Z,22.37
2024-01-30T02:49:57.468Z,22.33
2024-01-30T02:50:57.367Z,22.36
2024-01-30T02:51:57.465Z,22.38
2024-01-30T02:52:57.393Z,22.38
2024-01-30T02:53:57.407Z,22.38
2024-01-30T02:54:57.437Z,22.33
2024-01-30T02:55:57.451Z,22.34
2024-01-30T02:56:57.514Z,22.33
2024-01-30T02:57:57.580Z,22.36
2024-01-30T02:58:57.513Z,22.34
2024-01-30T02:59:57.544Z,22.33
2024-01-30T03:00:57.663Z,22.33
2024-01-30T03:01:57.770Z,22.33
2024-01-30T03:02:57.612Z,22.35
2024-01-30T03:03:57.732Z,22.33
2024-01-30T03:04:57.729Z,22.27
2024-01-30T03:05:57.659Z,22.30
2024-01-30T03:06:57.784Z,22.33
2024-01-30T03:07:57.912Z,22.34
2024-01-30T03:08:57.766Z,22.29
2024-01-30T03:09:57.763Z,22.34
2024-01-30T03:10:57.806Z,22.27
2024-01-30T03:11:57.860Z,22.21
2024-01-30T03:12:57.883Z,22.28
2024-01-30T03:13:57.881Z,22.26
2024-01-30T03:14:57.869Z,22.28
2024-01-30T03:15:57.941Z,22.32
2024-01-30T03:16:57.968Z,22.29
2024-01-30T03:17:57.969Z,22.24
2024-01-30T03:18:58.082Z,22.27
2024-01-30T03:19:58.076Z,22.24
2024-01-30T03:20:58.031Z,22.31
2024-01-30T03:21:58.073Z,22.29
2024-01-30T03:22:58.093Z,22.22
2024-01-30T03:23:58.176Z,22.27
2024-01-30T03:24:58.133Z,22.21
2024-01-30T03:25:58.209Z,22.26
2024-01-30T03:26:58.230Z,22.24
2024-01-30T03:27:58.310Z,22.25
2024-01-30T03:28:58.281Z,22.24
2024-01-30T03:29:58.378Z,22.26
2024-01-30T03:30:58.325Z,22.28
2024-01-30T03:31:58.361Z,22.22
2024-01-30T03:32:58.346Z,22.22
2024-01-30T03:33:58.416Z,22.20
2024-01-30T03:34:58.404Z,22.25
2024-01-30T03:35:58.394Z,22.18
2024-01-30T03:36:59.029Z,22.20
2024-01-30T03:37:58.461Z,22.26
2024-01-30T03:38:58.460Z,22.20
2024-01-30T03:39:58.496Z,22.21
2024-01-30T03:40:58.530Z,22.20
2024-01-30T03:41:58.505Z,22.15
2024-01-30T03:42:58.602Z,22.17
2024-01-30T03:43:58.590Z,22.18
2024-01-30T03:44:58.612Z,22.18
2024-01-30T03:45:58.719Z,22.17
2024-01-30T03:46:58.829Z,22.15
2024-01-30T03:47:58.704Z,22.18
2024-01-30T03:48:58.722Z,22.21
2024-01-30T03:49:58.776Z,22.23
2024-01-30T03:50:58.730Z,22.20
2024-01-30T03:51:58.822Z,22.14
2024-01-30T03:52:58.814Z,22.17
2024-01-30T03:53:58.796Z,22.15
2024-01-30T03:54:58.885Z,22.14
2024-01-30T03:55:58.849Z,22.15
2024-01-30T03:56:59.306Z,22.11
2024-01-30T03:57:58.948Z,22.15
2024-01-30T03:58:58.970Z,22.12
2024-01-30T04:00:01.085Z,22.14
2024-01-30T04:00:59.089Z,22.14
2024-01-30T04:01:59.054Z,22.11
2024-01-30T04:02:59.016Z,22.13
2024-01-30T04:03:59.087Z,22.17
2024-01-30T04:04:59.036Z,22.06
2024-01-30T04:05:58.981Z,22.11
2024-01-30T04:06:59.398Z,22.08
2024-01-30T04:07:58.965Z,22.11
2024-01-30T04:08:58.977Z,22.14
2024-01-30T04:09:59.011Z,22.11
2024-01-30T04:10:58.959Z,22.11
2024-01-30T04:11:58.949Z,22.11
2024-01-30T04:12:58.996Z,22.08
2024-01-30T04:13:58.960Z,22.06
2024-01-30T04:14:58.966Z,22.03
2024-01-30T04:15:59.006Z,22.09
2024-01-30T04:16:58.991Z,22.09
2024-01-30T04:17:59.058Z,22.11
2024-01-30T04:18:59.032Z,22.09
2024-01-30T04:19:59.104Z,22.12
2024-01-30T04:20:59.051Z,22.06
2024-01-30T04:21:59.085Z,22.03
2024-01-30T04:22:58.976Z,22.09
2024-01-30T04:23:59.045Z,22.14
2024-01-30T04:24:59.029Z,22.08
2024-01-30T04:25:58.996Z,22.05
2024-01-30T04:26:58.978Z,22.08
2024-01-30T04:27:59.020Z,22.06
2024-01-30T04:28:58.968Z,22.03
2024-01-30T04:29:58.992Z,22.11
2024-01-30T04:31:06.433Z,22.08
2024-01-30T04:32:06.404Z,22.06
2024-01-30T04:33:06.479Z,22.08
2024-01-30T04:34:06.482Z,22.07
2024-01-30T04:35:10.145Z,22.02
2024-01-30T04:36:07.421Z,22.06
2024-01-30T04:37:06.876Z,22.00
2024-01-30T04:38:06.425Z,22.03
2024-01-30T04:39:06.421Z,21.99
2024-01-30T04:40:06.555Z,22.00
2024-01-30T04:41:06.435Z,21.96
2024-01-30T04:42:09.421Z,21.99
2024-01-30T04:43:06.496Z,21.99
2024-01-30T04:44:06.451Z,21.98
2024-01-30T04:45:06.457Z,21.99
2024-01-30T04:46:06.487Z,22.00
2024-01-30T04:47:06.470Z,22.02
2024-01-30T04:48:06.468Z,22.01
2024-01-30T04:49:06.488Z,22.02
2024-01-30T04:50:06.505Z,21.96
2024-01-30T04:51:06.446Z,21.99
2024-01-30T04:52:06.507Z,21.98
2024-01-30T04:53:06.422Z,22.00
2024-01-30T04:54:06.456Z,21.93
2024-01-30T04:55:06.542Z,21.96
2024-01-30T04:56:06.421Z,21.98
2024-01-30T04:57:06.443Z,21.99
2024-01-30T04:58:06.484Z,21.93
2024-01-30T04:59:06.450Z,21.98
2024-01-30T05:00:06.444Z,21.94
2024-01-30T05:01:06.537Z,21.96
2024-01-30T05:02:06.713Z,21.95
2024-01-30T05:03:06.556Z,21.93
2024-01-30T05:04:06.522Z,21.89
2024-01-30T05:05:06.501Z,21.92
2024-01-30T05:06:06.492Z,21.89
2024-01-30T05:07:06.952Z,21.97
2024-01-30T05:08:06.460Z,21.96
2024-01-30T05:09:06.450Z,21.93
2024-01-30T05:10:07.304Z,21.89
2024-01-30T05:11:06.468Z,21.92
2024-01-30T05:12:06.467Z,21.95
2024-01-30T05:13:06.466Z,21.90
2024-01-30T05:14:06.441Z,21.92
2024-01-30T05:15:06.464Z,21.97
2024-01-30T05:16:06.521Z,21.95
2024-01-30T05:17:06.474Z,21.93
2024-01-30T05:18:06.545Z,21.89
2024-01-30T05:19:06.572Z,21.92
2024-01-30T05:20:06.500Z,21.99
2024-01-30T05:21:06.469Z,21.93
2024-01-30T05:22:06.481Z,21.87
2024-01-30T05:23:06.452Z,21.93
2024-01-30T05:24:06.466Z,21.92
2024-01-30T05:25:06.543Z,21.90
2024-01-30T05:26:06.477Z,21.93
2024-01-30T05:27:06.497Z,21.90
2024-01-30T05:28:06.559Z,21.89
2024-01-30T05:29:06.452Z,21.87
2024-01-30T05:30:06.488Z,21.92
2024-01-30T05:31:06.589Z,21.87
2024-01-30T05:32:07.392Z,21.90
2024-01-30T05:33:06.536Z,21.87
2024-01-30T05:34:06.619Z,21.90
2024-01-30T05:35:06.523Z,21.81
2024-01-30T05:36:06.512Z,21.86
2024-01-30T05:37:06.547Z,21.80
2024-01-30T05:38:06.520Z,21.89
2024-01-30T05:39:08.997Z,21.87
2024-01-30T05:40:06.503Z,21.84
2024-01-30T05:41:06.497Z,21.84
2024-01-30T05:42:06.513Z,21.89
2024-01-30T05:43:06.539Z,21.86
2024-01-30T05:44:06.511Z,21.86
2024-01-30T05:45:06.502Z,21.90
2024-01-30T05:46:06.535Z,21.87
2024-01-30T05:47:06.538Z,21.89
2024-01-30T05:48:06.615Z,21.84
2024-01-30T05:49:06.551Z,21.90
2024-01-30T05:50:06.553Z,21.87
2024-01-30T05:51:06.595Z,21.84
2024-01-30T05:52:06.697Z,21.84
2024-01-30T05:53:06.522Z,21.87
2024-01-30T05:54:06.538Z,21.83
2024-01-30T05:55:06.549Z,21.87
2024-01-30T05:56:06.506Z,21.80
2024-01-30T05:57:06.559Z,21.81
2024-01-30T05:58:06.544Z,21.87
2024-01-30T05:59:06.539Z,21.86
2024-01-30T06:00:06.528Z,21.90
2024-01-30T06:01:06.629Z,22.05
2024-01-30T06:02:06.992Z,22.05
2024-01-30T06:03:06.533Z,22.14
2024-01-30T06:04:06.725Z,22.30
2024-01-30T06:05:06.572Z,22.64
2024-01-30T06:06:06.514Z,23.01
2024-01-30T06:07:06.556Z,23.07
2024-01-30T06:08:06.594Z,23.10
2024-01-30T06:09:06.527Z,23.16
2024-01-30T06:10:06.566Z,23.26
2024-01-30T06:11:06.539Z,23.33
2024-01-30T06:12:06.564Z,23.37
2024-01-30T06:13:06.531Z,23.27
2024-01-30T06:14:06.579Z,23.30
2024-01-30T06:15:06.533Z,23.37
2024-01-30T06:16:06.603Z,23.26
2024-01-30T06:17:06.594Z,23.16
2024-01-30T06:18:06.573Z,23.14
2024-01-30T06:19:06.571Z,23.01
2024-01-30T06:20:06.568Z,22.97
2024-01-30T06:21:06.532Z,22.98
2024-01-30T06:22:06.918Z,22.89
2024-01-30T06:23:06.547Z,22.91
2024-01-30T06:24:06.544Z,22.92
2024-01-30T06:25:06.572Z,22.89
2024-01-30T06:26:06.553Z,22.91
2024-01-30T06:27:06.900Z,22.81
2024-01-30T06:28:06.589Z,22.73
2024-01-30T06:29:06.571Z,22.80
2024-01-30T06:30:06.587Z,22.81
2024-01-30T06:31:06.644Z,22.79
2024-01-30T06:32:06.996Z,22.78
2024-01-30T06:33:06.619Z,22.74
2024-01-30T06:34:06.630Z,22.70
2024-01-30T06:35:06.590Z,22.73
2024-01-30T06:36:06.561Z,22.73
2024-01-30T06:37:06.637Z,22.71
2024-01-30T06:38:06.572Z,22.73
2024-01-30T06:39:06.597Z,22.67
2024-01-30T06:40:06.646Z,22.68
2024-01-30T06:41:06.577Z,22.74
2024-01-30T06:42:06.877Z,22.71
2024-01-30T06:43:06.593Z,22.73
2024-01-30T06:44:06.578Z,22.68
2024-01-30T06:45:06.590Z,22.76
2024-01-30T06:46:07.458Z,22.70
2024-01-30T06:47:06.617Z,22.73
2024-01-30T06:48:06.652Z,22.92
2024-01-30T06:49:06.697Z,23.17
2024-01-30T06:50:06.641Z,23.18
2024-01-30T06:51:06.587Z,23.21
2024-01-30T06:52:06.622Z,23.52
2024-01-30T06:53:06.591Z,23.65
2024-01-30T06:54:06.595Z,23.66
2024-01-30T06:55:06.642Z,23.83
2024-01-30T06:56:06.607Z,23.83
2024-01-30T06:57:06.891Z,23.85
2024-01-30T06:58:06.715Z,24.06
2024-01-30T06:59:06.647Z,24.06
2024-01-30T07:00:06.641Z,24.84
2024-01-30T07:01:06.703Z,25.10
2024-01-30T07:02:07.015Z,24.98
2024-01-30T07:03:06.610Z,24.98
2024-01-30T07:04:06.756Z,25.39
2024-01-30T07:05:06.643Z,25.39
2024-01-30T07:06:06.631Z,25.87
2024-01-30T07:07:07.123Z,25.81
2024-01-30T07:08:06.629Z,25.87
2024-01-30T07:09:06.654Z,25.97
2024-01-30T07:10:06.725Z,26.63
2024-01-30T07:11:06.759Z,26.19
2024-01-30T07:12:06.897Z,26.36
2024-01-30T07:13:06.836Z,26.45
2024-01-30T07:14:06.880Z,26.66
2024-01-30T07:15:06.911Z,26.66
2024-01-30T07:16:06.914Z,26.99
2024-01-30T07:17:07.405Z,27.10
2024-01-30T07:18:06.995Z,27.19
2024-01-30T07:19:07.096Z,27.26
2024-01-30T07:20:07.259Z,27.22
2024-01-30T07:21:07.047Z,27.16
2024-01-30T07:22:07.436Z,27.33
2024-01-30T07:23:07.142Z,27.62
2024-01-30T07:24:07.172Z,27.63
2024-01-30T07:25:07.185Z,27.70
2024-01-30T07:26:07.166Z,27.62
2024-01-30T07:27:07.210Z,27.88
2024-01-30T07:28:07.251Z,27.94
2024-01-30T07:29:07.294Z,27.92
2024-01-30T07:30:07.296Z,28.72
2024-01-30T07:31:07.356Z,28.22
2024-01-30T07:32:07.373Z,28.24
2024-01-30T07:33:07.377Z,28.14
2024-01-30T07:34:07.464Z,28.22
2024-01-30T07:35:09.072Z,28.22
2024-01-30T07:36:07.482Z,28.25
2024-01-30T07:37:07.632Z,28.22
2024-01-30T07:38:07.608Z,28.67
2024-01-30T07:39:07.636Z,28.63
2024-01-30T07:40:07.867Z,28.66
2024-01-30T07:41:07.710Z,28.78
2024-01-30T07:42:08.298Z,28.74
2024-01-30T07:43:07.892Z,28.85
2024-01-30T07:44:07.922Z,28.80
2024-01-30T07:45:07.938Z,28.88
2024-01-30T07:46:08.082Z,28.93
2024-01-30T07:47:08.037Z,28.88
2024-01-30T07:48:08.123Z,29.01
2024-01-30T07:49:08.154Z,29.75
2024-01-30T07:50:08.287Z,29.94
2024-01-30T07:51:08.311Z,29.97
2024-01-30T07:52:08.512Z,29.74
2024-01-30T07:53:08.404Z,29.70
2024-01-30T07:54:08.458Z,29.73
2024-01-30T07:55:08.531Z,29.64
2024-01-30T07:56:08.551Z,30.13
2024-01-30T07:57:08.932Z,30.21
2024-01-30T07:58:08.668Z,30.20
2024-01-30T07:59:08.723Z,30.38
2024-01-30T08:00:08.761Z,30.24
2024-01-30T08:01:08.878Z,30.22
2024-01-30T08:02:08.969Z,29.86
2024-01-30T08:03:08.964Z,29.90
2024-01-30T08:04:09.132Z,29.88
2024-01-30T08:05:09.140Z,29.80
2024-01-30T08:06:09.144Z,29.91
2024-01-30T08:07:09.652Z,29.78
2024-01-30T08:08:09.216Z,29.92
2024-01-30T08:09:09.224Z,30.02
2024-01-30T08:10:09.300Z,30.05
2024-01-30T08:11:09.436Z,30.15
2024-01-30T08:12:09.944Z,30.24
2024-01-30T08:13:09.569Z,30.15
2024-01-30T08:14:09.485Z,30.16
2024-01-30T08:15:09.546Z,30.19
2024-01-30T08:16:12.262Z,30.27
2024-01-30T08:17:10.593Z,30.29
2024-01-30T08:18:09.611Z,30.42
2024-01-30T08:19:09.667Z,30.41
2024-01-30T08:20:10.017Z,30.59
2024-01-30T08:21:09.627Z,30.40
2024-01-30T08:22:09.942Z,30.56
2024-01-30T08:23:09.619Z,30.49
2024-01-30T08:24:09.606Z,30.53
2024-01-30T08:25:09.721Z,30.59
2024-01-30T08:26:09.632Z,30.68
2024-01-30T08:27:09.619Z,30.63
2024-01-30T08:28:09.848Z,30.76
2024-01-30T08:29:09.712Z,30.67
2024-01-30T08:30:09.649Z,30.79
2024-01-30T08:31:09.704Z,31.04
2024-01-30T08:32:09.732Z,31.10
2024-01-30T08:33:09.824Z,31.05
2024-01-30T08:34:09.923Z,31.18
2024-01-30T08:35:09.977Z,31.23
2024-01-30T08:36:09.922Z,31.43
2024-01-30T08:37:10.962Z,31.38
2024-01-30T08:38:09.979Z,31.72
2024-01-30T08:39:10.019Z,31.75
2024-01-30T08:40:10.107Z,31.72
2024-01-30T08:41:10.137Z,31.79
2024-01-30T08:42:10.157Z,31.66
2024-01-30T08:43:10.142Z,31.60
2024-01-30T08:44:10.179Z,32.18
2024-01-30T08:45:10.192Z,32.42
2024-01-30T08:46:10.316Z,32.53
2024-01-30T08:47:10.433Z,32.20
2024-01-30T08:48:10.425Z,32.02
2024-01-30T08:49:10.521Z,31.82
2024-01-30T08:50:10.431Z,31.54
2024-01-30T08:51:10.415Z,31.43
2024-01-30T08:52:10.578Z,31.20
2024-01-30T08:53:10.480Z,30.95
2024-01-30T08:54:10.552Z,30.82
2024-01-30T08:55:10.651Z,30.62
2024-01-30T08:56:10.625Z,30.51
2024-01-30T08:57:10.946Z,30.34
2024-01-30T08:58:10.777Z,30.24
2024-01-30T08:59:12.501Z,30.03
2024-01-30T09:00:10.835Z,29.92
2024-01-30T09:01:10.969Z,29.82
2024-01-30T09:02:12.705Z,29.68
2024-01-30T09:03:10.947Z,29.62
2024-01-30T09:04:11.131Z,29.51
2024-01-30T09:05:11.184Z,29.38
2024-01-30T09:06:11.087Z,29.31
2024-01-30T09:07:12.145Z,29.17
2024-01-30T09:08:11.244Z,29.13
2024-01-30T09:09:11.209Z,29.02
2024-01-30T09:10:14.346Z,28.94
2024-01-30T09:11:11.294Z,28.86
2024-01-30T09:12:11.500Z,28.72
2024-01-30T09:13:11.340Z,28.65
2024-01-30T09:14:11.284Z,28.54
2024-01-30T09:15:11.286Z,28.50
2024-01-30T09:16:11.332Z,28.45
2024-01-30T09:17:11.460Z,28.39
2024-01-30T09:18:11.370Z,28.28
2024-01-30T09:19:11.391Z,28.22
2024-01-30T09:20:11.395Z,28.15
2024-01-30T09:21:11.305Z,28.11
2024-01-30T09:22:11.513Z,28.04
2024-01-30T09:23:11.299Z,27.93
2024-01-30T09:24:12.298Z,27.88
2024-01-30T09:25:11.447Z,27.85
2024-01-30T09:26:11.278Z,27.73
2024-01-30T09:27:11.464Z,27.75
2024-01-30T09:28:12.294Z,27.65
2024-01-30T09:29:11.301Z,27.65
2024-01-30T09:30:11.305Z,27.55
2024-01-30T09:31:11.382Z,27.49
2024-01-30T09:32:11.330Z,27.49
2024-01-30T09:33:11.386Z,27.45
2024-01-30T09:34:11.411Z,27.37
2024-01-30T09:35:11.450Z,27.32
2024-01-30T09:36:11.307Z,27.25
2024-01-30T09:37:11.498Z,27.23
2024-01-30T09:38:11.308Z,27.15
2024-01-30T09:39:11.374Z,27.18
2024-01-30T09:40:11.560Z,27.05
2024-01-30T09:41:11.440Z,27.06
2024-01-30T09:42:11.965Z,26.99
2024-01-30T09:43:11.619Z,27.02
2024-01-30T09:44:11.555Z,27.27
2024-01-30T09:45:11.614Z,27.28
2024-01-30T09:46:11.695Z,27.31
2024-01-30T09:47:11.741Z,27.49
2024-01-30T09:48:11.837Z,27.58
2024-01-30T09:49:11.856Z,27.63
2024-01-30T09:50:11.956Z,27.76
2024-01-30T09:51:11.918Z,28.00
2024-01-30T09:52:11.962Z,28.20
2024-01-30T09:53:11.986Z,28.07
2024-01-30T09:54:12.041Z,28.26
2024-01-30T09:55:12.093Z,28.34
2024-01-30T09:56:12.097Z,28.62
2024-01-30T09:57:12.116Z,28.52
2024-01-30T09:58:12.113Z,28.67
2024-01-30T09:59:12.190Z,28.85
2024-01-30T10:00:12.237Z,28.95
2024-01-30T10:01:12.314Z,28.88
2024-01-30T10:02:12.533Z,28.96
2024-01-30T10:03:12.314Z,28.98
2024-01-30T10:04:12.455Z,29.20
2024-01-30T10:05:12.467Z,29.20
2024-01-30T10:06:12.473Z,29.29
2024-01-30T10:07:12.649Z,29.33
2024-01-30T10:08:12.617Z,29.50
2024-01-30T10:09:12.612Z,29.60
2024-01-30T10:10:12.708Z,29.47
2024-01-30T10:11:12.714Z,29.59
2024-01-30T10:12:12.756Z,29.67
2024-01-30T10:13:12.848Z,29.80
2024-01-30T10:14:12.910Z,29.75
2024-01-30T10:15:12.948Z,29.78
2024-01-30T10:16:12.994Z,29.77
2024-01-30T10:17:17.989Z,29.93
2024-01-30T10:18:14.057Z,30.25
2024-01-30T10:19:13.089Z,30.13
2024-01-30T10:20:13.128Z,30.12
2024-01-30T10:21:12.999Z,30.76
2024-01-30T10:22:13.061Z,30.62
2024-01-30T10:23:13.013Z,30.85
2024-01-30T10:24:13.009Z,30.94
2024-01-30T10:25:13.186Z,30.85
2024-01-30T10:26:13.039Z,30.80
2024-01-30T10:27:13.005Z,30.67
2024-01-30T10:28:13.072Z,30.92
2024-01-30T10:29:13.054Z,30.91
2024-01-30T10:30:13.117Z,31.16
2024-01-30T10:31:13.144Z,31.21
2024-01-30T10:32:13.213Z,31.22
2024-01-30T10:33:14.319Z,31.37
2024-01-30T10:34:19.793Z,31.44
2024-01-30T10:35:14.415Z,31.55
2024-01-30T10:36:13.206Z,31.47
2024-01-30T10:37:13.240Z,31.53
2024-01-30T10:38:13.217Z,31.72
2024-01-30T10:39:13.193Z,31.54
2024-01-30T10:40:13.220Z,31.59
2024-01-30T10:41:13.191Z,31.66
2024-01-30T10:42:13.240Z,31.56
2024-01-30T10:43:13.278Z,31.69
2024-01-30T10:44:13.359Z,31.73
2024-01-30T10:45:13.193Z,31.94
2024-01-30T10:46:13.245Z,32.01
2024-01-30T10:47:13.216Z,32.55
2024-01-30T10:48:13.288Z,32.58
2024-01-30T10:49:13.338Z,32.64
2024-01-30T10:50:13.414Z,32.63
2024-01-30T10:51:13.317Z,32.27
2024-01-30T10:52:13.402Z,32.46
2024-01-30T10:53:13.433Z,32.22
2024-01-30T10:54:13.465Z,32.23
2024-01-30T10:55:13.590Z,32.33
2024-01-30T10:56:14.488Z,32.62
2024-01-30T10:57:13.663Z,33.06
2024-01-30T10:58:13.664Z,33.06
2024-01-30T10:59:13.666Z,32.81
2024-01-30T11:00:13.697Z,32.62
2024-01-30T11:01:13.829Z,33.05
2024-01-30T11:02:13.848Z,33.31
2024-01-30T11:03:13.846Z,33.35
2024-01-30T11:04:14.029Z,33.45
2024-01-30T11:05:14.083Z,33.68
2024-01-30T11:06:13.994Z,33.96
2024-01-30T11:07:14.091Z,34.07
2024-01-30T11:08:14.039Z,34.29
2024-01-30T11:09:14.267Z,34.30
2024-01-30T11:10:14.281Z,34.30
2024-01-30T11:11:17.323Z,34.55
2024-01-30T11:12:14.114Z,34.81
2024-01-30T11:13:14.177Z,34.93
2024-01-30T11:14:14.148Z,34.87
2024-01-30T11:15:14.154Z,34.77
2024-01-30T11:16:14.175Z,34.92
2024-01-30T11:17:14.159Z,34.92
2024-01-30T11:18:14.252Z,35.14
2024-01-30T11:19:14.187Z,35.28
2024-01-30T11:20:14.190Z,35.29
2024-01-30T11:21:14.127Z,35.44
2024-01-30T11:22:14.151Z,35.40
2024-01-30T11:23:14.149Z,35.36
2024-01-30T11:24:14.153Z,35.60
2024-01-30T11:25:14.161Z,35.55
2024-01-30T11:26:14.174Z,35.63
2024-01-30T11:27:14.178Z,35.99
2024-01-30T11:28:14.168Z,35.91
2024-01-30T11:29:14.162Z,36.01
2024-01-30T11:30:14.119Z,35.97
2024-01-30T11:31:14.158Z,35.91
2024-01-30T11:32:14.156Z,36.03
2024-01-30T11:33:14.318Z,36.10
2024-01-30T11:34:14.279Z,36.12
2024-01-30T11:35:14.272Z,36.30
2024-01-30T11:36:14.160Z,36.41
2024-01-30T11:37:14.188Z,36.44
2024-01-30T11:38:14.170Z,36.67
2024-01-30T11:39:14.160Z,37.04
2024-01-30T11:40:14.218Z,37.11
2024-01-30T11:41:14.173Z,37.17
2024-01-30T11:42:14.186Z,37.68
2024-01-30T11:43:14.235Z,37.48
2024-01-30T11:44:14.204Z,37.29
2024-01-30T11:45:14.155Z,37.02
2024-01-30T11:46:14.203Z,36.63
2024-01-30T11:47:14.171Z,36.53
2024-01-30T11:48:14.257Z,36.26
2024-01-30T11:49:14.238Z,36.09
2024-01-30T11:50:14.276Z,35.92
2024-01-30T11:51:14.173Z,35.69
2024-01-30T11:52:14.255Z,35.56
2024-01-30T11:53:14.198Z,35.45
2024-01-30T11:54:14.222Z,35.22
2024-01-30T11:55:14.310Z,35.14
2024-01-30T11:56:14.328Z,35.04
2024-01-30T11:57:14.391Z,34.87
2024-01-30T11:58:14.452Z,34.80
2024-01-30T11:59:14.448Z,34.68
2024-01-30T12:00:14.517Z,34.62
2024-01-30T12:01:14.619Z,34.55
2024-01-30T12:02:14.650Z,34.40
2024-01-30T12:03:14.651Z,34.35
2024-01-30T12:04:14.721Z,34.26
2024-01-30T12:05:14.782Z,34.16
2024-01-30T12:06:14.869Z,34.14
2024-01-30T12:07:14.891Z,33.98
2024-01-30T12:08:15.026Z,33.86
2024-01-30T12:09:14.931Z,33.86
2024-01-30T12:10:15.044Z,33.77
2024-01-30T12:11:15.109Z,33.63
2024-01-30T12:12:15.136Z,33.59
2024-01-30T12:13:15.252Z,33.51
2024-01-30T12:14:15.318Z,33.40
2024-01-30T12:15:15.287Z,33.34
2024-01-30T12:16:15.437Z,33.23
2024-01-30T12:17:15.360Z,33.13
2024-01-30T12:18:15.503Z,33.18
2024-01-30T12:19:15.463Z,33.07
2024-01-30T12:20:15.640Z,32.97
2024-01-30T12:21:15.463Z,32.92
2024-01-30T12:22:15.595Z,32.86
2024-01-30T12:23:15.586Z,32.71
2024-01-30T12:24:15.621Z,32.63
2024-01-30T12:25:15.634Z,32.60
2024-01-30T12:26:15.623Z,32.51
2024-01-30T12:27:15.674Z,32.41
2024-01-30T12:28:15.881Z,32.41
2024-01-30T12:29:15.734Z,32.27
2024-01-30T12:30:15.809Z,32.15
2024-01-30T12:31:15.875Z,32.21
2024-01-30T12:32:15.793Z,32.13
2024-01-30T12:33:15.925Z,32.08
2024-01-30T12:34:15.973Z,32.07
2024-01-30T12:35:16.163Z,32.02
2024-01-30T12:36:16.122Z,31.96
2024-01-30T12:37:18.002Z,31.92
2024-01-30T12:38:16.006Z,31.93
2024-01-30T12:39:16.024Z,31.94
2024-01-30T12:40:16.432Z,31.91
2024-01-30T12:41:16.076Z,31.91
2024-01-30T12:42:16.098Z,31.87
2024-01-30T12:43:24.351Z,31.80
2024-01-30T12:44:17.096Z,31.69
2024-01-30T12:45:16.111Z,31.64
2024-01-30T12:46:16.120Z,31.62
2024-01-30T12:47:16.116Z,31.57
2024-01-30T12:48:16.220Z,31.51
2024-01-30T12:49:16.274Z,31.44
2024-01-30T12:50:16.156Z,31.38
2024-01-30T12:51:16.208Z,31.32
2024-01-30T12:52:16.155Z,31.29
2024-01-30T12:53:16.172Z,31.27